Time;durP1;ratioP1;P1;durP2;ratioP2;P2;SDS_P1;SDS_P2;PMS_P1;PMS_P2;Temp;Humidity;BMP_temperature;BMP_pressure;BME280_temperature;BME280_humidity;BME280_pressure;Samples;Min_cycle;Max_cycle;Signal;HPM_P1;HPM_P2
2022/12/18 00:00:20;;;;;;;;;;;;;;;;;;1024180;28;19950;-77
2022/12/18 00:00:51;;;;;;;;;;;;;;;;;;1023596;29;20412;-77
2022/12/18 00:01:22;;;;;;;;;;;;;;;;;;1027857;28;20281;-78
2022/12/18 00:01:56;;;;;;;;;;;;;;;;;;1031335;28;19921;-78
2022/12/18 00:02:27;;;;;;;;;;;;;;;;;;1027744;28;19969;-77
2022/12/18 00:02:57;;;;;;;;;;;;;;;;;;1027289;28;19918;-77
2022/12/18 00:03:28;;;;;;;;;;;;;;;;;;1027800;28;19914;-78
2022/12/18 00:03:59;;;;;;;;;;;;;;;;;;1028249;28;19946;-77
2022/12/18 00:04:30;;;;;;;;;;;;;;;;;;1027399;28;19910;-77
2022/12/18 00:05:01;;;;;;;;;;;;;;;;;;1027248;28;19920;-77
2022/12/18 00:05:32;;;;;;;;;;;;;;;;;;1027774;28;19914;-77
2022/12/18 00:06:03;;;;;;;;;;;;;;;;;;1028037;28;20413;-77
2022/12/18 00:06:34;;;;;;;;;;;;;;;;;;1027922;28;19911;-78
2022/12/18 00:07:05;;;;;;;;;;;;;;;;;;1027531;28;19981;-77
2022/12/18 00:07:35;;;;;;;;;;;;;;;;;;1027549;28;19970;-77
2022/12/18 00:08:06;;;;;;;;;;;;;;;;;;1027602;28;20382;-78
2022/12/18 00:08:37;;;;;;;;;;;;;;;;;;1032060;28;19956;-77
2022/12/18 00:09:08;;;;;;;;;;;;;;;;;;1028528;28;20428;-77
2022/12/18 00:09:39;;;;;;;;;;;;;;;;;;1030392;28;19916;-79
2022/12/18 00:10:10;;;;;;;;;;;;;;;;;;1027619;28;20431;-78
2022/12/18 00:10:41;;;;;;;;;;;;;;;;;;1028032;28;19922;-78
2022/12/18 00:11:11;;;;;;;;;;;;;;;;;;1031793;28;19990;-77
2022/12/18 00:11:42;;;;;;;;;;;;;;;;;;1032932;28;19964;-78
2022/12/18 00:12:13;;;;;;;;;;;;;;;;;;1031527;28;19947;-79
2022/12/18 00:12:44;;;;;;;;;;;;;;;;;;1031360;28;20553;-78
2022/12/18 00:13:15;;;;;;;;;;;;;;;;;;1031061;28;19913;-78
2022/12/18 00:13:46;;;;;;;;;;;;;;;;;;1031329;28;20395;-79
2022/12/18 00:14:17;;;;;;;;;;;;;;;;;;1032415;28;20343;-77
2022/12/18 00:14:48;;;;;;;;;;;;;;;;;;1035663;28;19920;-78
2022/12/18 00:15:18;;;;;;;;;;;;;;;;;;1035701;28;19916;-79
2022/12/18 00:15:49;;;;;;;;;;;;;;;;;;1035406;28;20292;-78
2022/12/18 00:16:20;;;;;;;;;;;;;;;;;;1035025;28;19914;-78
2022/12/18 00:16:51;;;;;;;;;;;;;;;;;;1028698;28;20375;-77
2022/12/18 00:17:22;;;;;;;;;;;;;;;;;;1027589;28;19945;-78
2022/12/18 00:17:53;;;;;;;;;;;;;;;;;;1027123;28;20432;-79
2022/12/18 00:18:24;;;;;;;;;;;;;;;;;;1031065;28;19937;-79
2022/12/18 00:18:54;;;;;;;;;;;;;;;;;;1031366;28;20381;-77
2022/12/18 00:19:25;;;;;;;;;;;;;;;;;;1032445;28;19914;-78
2022/12/18 00:19:56;;;;;;;;;;;;;;;;;;1031121;28;20404;-80
2022/12/18 00:20:27;;;;;;;;;;;;;;;;;;1031323;28;19914;-77
2022/12/18 00:20:58;;;;;;;;;;;;;;;;;;1031713;28;19910;-77
2022/12/18 00:21:29;;;;;;;;;;;;;;;;;;1030843;28;20010;-77
2022/12/18 00:22:00;;;;;;;;;;;;;;;;;;1031808;28;20380;-79
2022/12/18 00:22:31;;;;;;;;;;;;;;;;;;1031691;28;20288;-77
2022/12/18 00:23:01;;;;;;;;;;;;;;;;;;1035387;28;20388;-78
2022/12/18 00:23:32;;;;;;;;;;;;;;;;;;1035242;28;19913;-78
2022/12/18 00:24:03;;;;;;;;;;;;;;;;;;1031326;28;19914;-77
2022/12/18 00:24:34;;;;;;;;;;;;;;;;;;1023806;28;20465;-78
2022/12/18 00:25:05;;;;;;;;;;;;;;;;;;1027736;28;20192;-79
2022/12/18 00:25:36;;;;;;;;;;;;;;;;;;1027589;28;20286;-78
2022/12/18 00:26:07;;;;;;;;;;;;;;;;;;1031214;28;19997;-78
2022/12/18 00:26:38;;;;;;;;;;;;;;;;;;1031465;28;19906;-78
2022/12/18 00:27:09;;;;;;;;;;;;;;;;;;1030274;28;19974;-77
2022/12/18 00:27:39;;;;;;;;;;;;;;;;;;1027551;28;20246;-78
2022/12/18 00:28:10;;;;;;;;;;;;;;;;;;1027848;28;19917;-78
2022/12/18 00:28:41;;;;;;;;;;;;;;;;;;1028180;28;19913;-77
2022/12/18 00:29:13;;;;;;;;;;;;;;;;;;1023753;28;19917;-77
2022/12/18 00:29:44;;;;;;;;;;;;;;;;;;1024512;29;19910;-78
2022/12/18 00:30:15;;;;;;;;;;;;;;;;;;1028054;28;19914;-78
2022/12/18 00:30:46;;;;;;;;;;;;;;;;;;1023909;28;20019;-79
2022/12/18 00:31:17;;;;;;;;;;;;;;;;;;1027696;28;20276;-78
2022/12/18 00:31:47;;;;;;;;;;;;;;;;;;1027385;28;20384;-78
2022/12/18 00:32:18;;;;;;;;;;;;;;;;;;1028139;28;19910;-77
2022/12/18 00:32:49;;;;;;;;;;;;;;;;;;1024103;28;19911;-77
2022/12/18 00:33:20;;;;;;;;;;;;;;;;;;1027946;28;19941;-78
2022/12/18 00:33:51;;;;;;;;;;;;;;;;;;1027320;28;19910;-78
2022/12/18 00:34:22;;;;;;;;;;;;;;;;;;1027738;28;19917;-78
2022/12/18 00:34:53;;;;;;;;;;;;;;;;;;1027718;28;20483;-78
2022/12/18 00:35:23;;;;;;;;;;;;;;;;;;1031388;28;19910;-78
2022/12/18 00:35:54;;;;;;;;;;;;;;;;;;1031297;28;19910;-77
2022/12/18 00:36:25;;;;;;;;;;;;;;;;;;1031709;28;19949;-78
2022/12/18 00:36:56;;;;;;;;;;;;;;;;;;1033287;28;19906;-79
2022/12/18 00:37:27;;;;;;;;;;;;;;;;;;1035823;28;20349;-78
2022/12/18 00:37:58;;;;;;;;;;;;;;;;;;1034416;28;20203;-78
2022/12/18 00:38:29;;;;;;;;;;;;;;;;;;1035357;28;20439;-78
2022/12/18 00:38:59;;;;;;;;;;;;;;;;;;1035631;28;19909;-77
2022/12/18 00:39:30;;;;;;;;;;;;;;;;;;1035612;28;20365;-78
2022/12/18 00:40:01;;;;;;;;;;;;;;;;;;1035948;28;19910;-77
2022/12/18 00:40:32;;;;;;;;;;;;;;;;;;1036721;28;19911;-78
2022/12/18 00:41:03;;;;;;;;;;;;;;;;;;1035696;28;19957;-79
2022/12/18 00:43:13;;;;;;;;;;;;;;;;;;1037683;28;20402;-78
2022/12/18 00:43:44;;;;;;;;;;;;;;;;;;1035470;28;20344;-78
2022/12/18 00:44:14;;;;;;;;;;;;;;;;;;1029371;28;19993;-78
2022/12/18 00:44:45;;;;;;;;;;;;;;;;;;1027050;28;20329;-78
2022/12/18 00:45:16;;;;;;;;;;;;;;;;;;1028126;28;19925;-78
2022/12/18 00:45:47;;;;;;;;;;;;;;;;;;1032567;28;20008;-78
2022/12/18 00:46:18;;;;;;;;;;;;;;;;;;1035648;28;19914;-77
2022/12/18 00:46:49;;;;;;;;;;;;;;;;;;1030740;28;19937;-78
2022/12/18 00:47:20;;;;;;;;;;;;;;;;;;1031588;28;20016;-78
2022/12/18 00:47:51;;;;;;;;;;;;;;;;;;1031329;28;19921;-78
2022/12/18 00:48:22;;;;;;;;;;;;;;;;;;1032261;28;19913;-78
2022/12/18 00:48:52;;;;;;;;;;;;;;;;;;1031066;28;19917;-77
2022/12/18 00:49:23;;;;;;;;;;;;;;;;;;1029729;28;19918;-78
2022/12/18 00:49:54;;;;;;;;;;;;;;;;;;1031259;28;19953;-78
2022/12/18 00:50:25;;;;;;;;;;;;;;;;;;1031346;28;19920;-79
2022/12/18 00:50:56;;;;;;;;;;;;;;;;;;1032284;28;19929;-78
2022/12/18 00:51:27;;;;;;;;;;;;;;;;;;1031456;28;19953;-79
2022/12/18 00:51:58;;;;;;;;;;;;;;;;;;1031518;28;20446;-78
2022/12/18 00:52:29;;;;;;;;;;;;;;;;;;1031241;28;19977;-78
2022/12/18 00:52:59;;;;;;;;;;;;;;;;;;1031598;28;20281;-78
2022/12/18 00:53:30;;;;;;;;;;;;;;;;;;1031839;28;19913;-78
2022/12/18 00:54:01;;;;;;;;;;;;;;;;;;1031711;28;20369;-78
2022/12/18 00:54:32;;;;;;;;;;;;;;;;;;1034997;28;19917;-78
2022/12/18 00:55:03;;;;;;;;;;;;;;;;;;1035367;28;19963;-78
2022/12/18 00:55:34;;;;;;;;;;;;;;;;;;1035357;28;19952;-77
2022/12/18 00:56:05;;;;;;;;;;;;;;;;;;1031957;28;19913;-78
2022/12/18 00:56:36;;;;;;;;;;;;;;;;;;1029144;28;20127;-78
2022/12/18 00:57:06;;;;;;;;;;;;;;;;;;1031472;28;19945;-78
2022/12/18 00:57:37;;;;;;;;;;;;;;;;;;1031044;28;19913;-79
2022/12/18 00:58:08;;;;;;;;;;;;;;;;;;1031131;28;20372;-78
2022/12/18 00:58:39;;;;;;;;;;;;;;;;;;1032115;28;19920;-78
2022/12/18 00:59:10;;;;;;;;;;;;;;;;;;1031331;28;20407;-77
2022/12/18 00:59:41;;;;;;;;;;;;;;;;;;1031068;28;19956;-78
2022/12/18 01:00:12;;;;;;;;;;;;;;;;;;1031789;28;19909;-78
2022/12/18 01:00:42;;;;;;;;;;;;;;;;;;1031388;28;20362;-78
2022/12/18 01:01:13;;;;;;;;;;;;;;;;;;1036144;28;20007;-78
2022/12/18 01:01:44;;;;;;;;;;;;;;;;;;1031612;28;19960;-78
2022/12/18 01:02:15;;;;;;;;;;;;;;;;;;1032083;28;19948;-77
2022/12/18 01:02:46;;;;;;;;;;;;;;;;;;1035164;28;20388;-79
2022/12/18 01:03:17;;;;;;;;;;;;;;;;;;1035924;28;19917;-78
2022/12/18 01:03:48;;;;;;;;;;;;;;;;;;1032129;28;19914;-77
2022/12/18 01:04:19;;;;;;;;;;;;;;;;;;1028025;28;20494;-78
2022/12/18 01:04:50;;;;;;;;;;;;;;;;;;1034380;28;20457;-77
2022/12/18 01:05:21;;;;;;;;;;;;;;;;;;1035901;28;20485;-77
2022/12/18 01:05:51;;;;;;;;;;;;;;;;;;1031427;28;19972;-78
2022/12/18 01:06:23;;;;;;;;;;;;;;;;;;1032215;28;19997;-78
2022/12/18 01:06:54;;;;;;;;;;;;;;;;;;1030977;28;19921;-77
2022/12/18 01:07:24;;;;;;;;;;;;;;;;;;1031652;28;20020;-77
2022/12/18 01:07:55;;;;;;;;;;;;;;;;;;1031499;28;20000;-78
2022/12/18 01:08:26;;;;;;;;;;;;;;;;;;1031528;28;19913;-79
2022/12/18 01:08:57;;;;;;;;;;;;;;;;;;1032444;28;19917;-78
2022/12/18 01:09:28;;;;;;;;;;;;;;;;;;1031374;28;19914;-78
2022/12/18 01:09:59;;;;;;;;;;;;;;;;;;1031479;28;19920;-78
2022/12/18 01:10:30;;;;;;;;;;;;;;;;;;1031564;28;19913;-79
2022/12/18 01:11:01;;;;;;;;;;;;;;;;;;1031248;28;20404;-78
2022/12/18 01:11:32;;;;;;;;;;;;;;;;;;1028607;28;19990;-78
2022/12/18 01:12:02;;;;;;;;;;;;;;;;;;1027578;28;20329;-78
2022/12/18 01:12:33;;;;;;;;;;;;;;;;;;1027699;28;20473;-79
2022/12/18 01:13:05;;;;;;;;;;;;;;;;;;1030214;28;19913;-79
2022/12/18 01:13:36;;;;;;;;;;;;;;;;;;1031542;28;19953;-79
2022/12/18 01:14:07;;;;;;;;;;;;;;;;;;1028369;28;19917;-78
2022/12/18 01:14:38;;;;;;;;;;;;;;;;;;1031784;28;19941;-79
2022/12/18 01:15:09;;;;;;;;;;;;;;;;;;1030535;28;20362;-79
2022/12/18 01:15:40;;;;;;;;;;;;;;;;;;1031732;28;19941;-78
2022/12/18 01:16:11;;;;;;;;;;;;;;;;;;1035490;28;20403;-80
2022/12/18 01:16:41;;;;;;;;;;;;;;;;;;1032339;28;19914;-79
2022/12/18 01:17:12;;;;;;;;;;;;;;;;;;1035553;28;20340;-79
2022/12/18 01:17:43;;;;;;;;;;;;;;;;;;1035519;28;19924;-79
2022/12/18 01:18:14;;;;;;;;;;;;;;;;;;1035262;28;19917;-78
2022/12/18 01:18:45;;;;;;;;;;;;;;;;;;1035351;28;19936;-80
2022/12/18 01:19:16;;;;;;;;;;;;;;;;;;1036441;28;19914;-79
2022/12/18 01:19:47;;;;;;;;;;;;;;;;;;1035277;28;20276;-78
2022/12/18 01:20:18;;;;;;;;;;;;;;;;;;1031878;28;19921;-78
2022/12/18 01:20:48;;;;;;;;;;;;;;;;;;1031344;28;19910;-78
2022/12/18 01:21:19;;;;;;;;;;;;;;;;;;1035955;28;20007;-78
2022/12/18 01:21:50;;;;;;;;;;;;;;;;;;1031760;28;20396;-77
2022/12/18 01:22:21;;;;;;;;;;;;;;;;;;1031864;28;19922;-79
2022/12/18 01:22:52;;;;;;;;;;;;;;;;;;1031017;28;20296;-79
2022/12/18 01:23:23;;;;;;;;;;;;;;;;;;1033983;28;19909;-78
2022/12/18 01:23:54;;;;;;;;;;;;;;;;;;1034974;28;20290;-79
2022/12/18 01:24:25;;;;;;;;;;;;;;;;;;1036687;28;20734;-78
2022/12/18 01:24:56;;;;;;;;;;;;;;;;;;1036339;28;20008;-78
2022/12/18 01:25:26;;;;;;;;;;;;;;;;;;1035842;28;19913;-78
2022/12/18 01:25:57;;;;;;;;;;;;;;;;;;1035476;28;19914;-78
2022/12/18 01:26:29;;;;;;;;;;;;;;;;;;1035583;28;19921;-77
2022/12/18 01:27:00;;;;;;;;;;;;;;;;;;1035814;28;20423;-78
2022/12/18 01:27:31;;;;;;;;;;;;;;;;;;1035895;28;20304;-78
2022/12/18 01:28:02;;;;;;;;;;;;;;;;;;1035200;28;19977;-78
2022/12/18 01:28:33;;;;;;;;;;;;;;;;;;1035313;28;19921;-78
2022/12/18 01:29:04;;;;;;;;;;;;;;;;;;1035344;28;20016;-79
2022/12/18 01:29:34;;;;;;;;;;;;;;;;;;1039989;28;19920;-78
2022/12/18 01:30:05;;;;;;;;;;;;;;;;;;1034947;28;20000;-79
2022/12/18 01:30:36;;;;;;;;;;;;;;;;;;1035274;28;19914;-78
2022/12/18 01:31:07;;;;;;;;;;;;;;;;;;1035211;28;19914;-78
2022/12/18 01:31:38;;;;;;;;;;;;;;;;;;1035530;28;20061;-79
2022/12/18 01:32:09;;;;;;;;;;;;;;;;;;1036088;28;19961;-78
2022/12/18 01:32:40;;;;;;;;;;;;;;;;;;1035882;28;19917;-78
2022/12/18 01:33:11;;;;;;;;;;;;;;;;;;1035123;28;19913;-77
2022/12/18 01:33:43;;;;;;;;;;;;;;;;;;1034446;28;19909;-78
2022/12/18 01:34:14;;;;;;;;;;;;;;;;;;1035568;28;19916;-77
2022/12/18 01:34:45;;;;;;;;;;;;;;;;;;1036253;28;19932;-78
2022/12/18 01:35:15;;;;;;;;;;;;;;;;;;1036046;28;19949;-77
2022/12/18 01:35:46;;;;;;;;;;;;;;;;;;1035382;28;19940;-78
2022/12/18 01:36:17;;;;;;;;;;;;;;;;;;1035161;28;19914;-78
2022/12/18 01:36:48;;;;;;;;;;;;;;;;;;1031248;28;19921;-79
2022/12/18 01:37:19;;;;;;;;;;;;;;;;;;1027976;28;20353;-80
2022/12/18 01:37:51;;;;;;;;;;;;;;;;;;1023819;28;20289;-76
2022/12/18 01:38:21;;;;;;;;;;;;;;;;;;1023515;28;20338;-77
2022/12/18 01:38:53;;;;;;;;;;;;;;;;;;1023340;28;20413;-78
2022/12/18 01:39:23;;;;;;;;;;;;;;;;;;1023711;28;19917;-77
2022/12/18 01:39:55;;;;;;;;;;;;;;;;;;1028156;28;20115;-78
2022/12/18 01:40:26;;;;;;;;;;;;;;;;;;1029304;28;19910;-78
2022/12/18 01:40:57;;;;;;;;;;;;;;;;;;1031575;28;19917;-78
2022/12/18 01:42:01;;;;;;;;;;;;;;;;;;1031336;28;19910;-77
2022/12/18 01:42:18;;;;;;;;;;;;;;;;;;1034151;28;19913;-78
2022/12/18 01:42:49;;;;;;;;;;;;;;;;;;1035805;28;19980;-78
2022/12/18 01:43:20;;;;;;;;;;;;;;;;;;1035762;28;20376;-77
2022/12/18 01:43:51;;;;;;;;;;;;;;;;;;1035137;28;19910;-78
2022/12/18 01:44:23;;;;;;;;;;;;;;;;;;1035446;28;19909;-78
2022/12/18 01:44:57;;;;;;;;;;;;;;;;;;1035309;28;20076;-77
2022/12/18 01:45:28;;;;;;;;;;;;;;;;;;1036426;28;19937;-78
2022/12/18 01:45:59;;;;;;;;;;;;;;;;;;1036001;28;19964;-77
2022/12/18 01:46:30;;;;;;;;;;;;;;;;;;1035554;28;19932;-76
2022/12/18 01:47:01;;;;;;;;;;;;;;;;;;1035204;28;20395;-78
2022/12/18 01:47:32;;;;;;;;;;;;;;;;;;1035515;28;19964;-77
2022/12/18 01:48:02;;;;;;;;;;;;;;;;;;1036156;28;19941;-77
2022/12/18 01:48:33;;;;;;;;;;;;;;;;;;1040033;28;19913;-78
2022/12/18 01:49:04;;;;;;;;;;;;;;;;;;1034747;28;19936;-77
2022/12/18 01:49:35;;;;;;;;;;;;;;;;;;1031287;28;20016;-77
2022/12/18 01:50:06;;;;;;;;;;;;;;;;;;1030970;28;19910;-77
2022/12/18 01:50:37;;;;;;;;;;;;;;;;;;1031828;28;19918;-79
2022/12/18 01:51:08;;;;;;;;;;;;;;;;;;1035128;28;20055;-77
2022/12/18 01:51:38;;;;;;;;;;;;;;;;;;1035366;28;19957;-79
2022/12/18 01:52:09;;;;;;;;;;;;;;;;;;1034853;28;19914;-76
2022/12/18 01:52:40;;;;;;;;;;;;;;;;;;1035221;28;20009;-77
2022/12/18 01:53:11;;;;;;;;;;;;;;;;;;1035976;28;19949;-77
2022/12/18 01:53:42;;;;;;;;;;;;;;;;;;1035893;28;19909;-78
2022/12/18 01:54:13;;;;;;;;;;;;;;;;;;1034890;28;19913;-78
2022/12/18 01:54:44;;;;;;;;;;;;;;;;;;1035171;28;20243;-78
2022/12/18 01:55:14;;;;;;;;;;;;;;;;;;1035054;28;20401;-78
2022/12/18 01:55:45;;;;;;;;;;;;;;;;;;1036046;28;20482;-78
2022/12/18 01:56:16;;;;;;;;;;;;;;;;;;1035661;28;19913;-78
2022/12/18 01:56:47;;;;;;;;;;;;;;;;;;1038811;28;20439;-77
2022/12/18 01:57:18;;;;;;;;;;;;;;;;;;1035383;28;20008;-77
2022/12/18 01:57:49;;;;;;;;;;;;;;;;;;1035082;28;20414;-78
2022/12/18 01:58:20;;;;;;;;;;;;;;;;;;1035462;28;19921;-77
2022/12/18 01:58:51;;;;;;;;;;;;;;;;;;1035422;28;19913;-77
2022/12/18 01:59:21;;;;;;;;;;;;;;;;;;1035018;28;19964;-78
2022/12/18 01:59:52;;;;;;;;;;;;;;;;;;1030768;28;19910;-78
2022/12/18 02:00:23;;;;;;;;;;;;;;;;;;1031195;28;19914;-78
2022/12/18 02:00:54;;;;;;;;;;;;;;;;;;1027755;28;19918;-77
2022/12/18 02:01:25;;;;;;;;;;;;;;;;;;1030831;28;20257;-80
2022/12/18 02:01:56;;;;;;;;;;;;;;;;;;1035169;28;19910;-78
2022/12/18 02:02:27;;;;;;;;;;;;;;;;;;1031352;28;20002;-79
2022/12/18 02:02:58;;;;;;;;;;;;;;;;;;1033142;28;20289;-77
2022/12/18 02:03:28;;;;;;;;;;;;;;;;;;1035937;28;20047;-78
2022/12/18 02:03:59;;;;;;;;;;;;;;;;;;1035290;28;19944;-78
2022/12/18 02:04:30;;;;;;;;;;;;;;;;;;1031139;28;19913;-78
2022/12/18 02:05:01;;;;;;;;;;;;;;;;;;1031260;28;19956;-78
2022/12/18 02:05:32;;;;;;;;;;;;;;;;;;1035349;28;20464;-78
2022/12/18 02:06:03;;;;;;;;;;;;;;;;;;1035382;28;19909;-77
2022/12/18 02:06:34;;;;;;;;;;;;;;;;;;1030632;28;20409;-78
2022/12/18 02:07:04;;;;;;;;;;;;;;;;;;1031228;28;19917;-78
2022/12/18 02:07:35;;;;;;;;;;;;;;;;;;1023417;28;20321;-78
2022/12/18 02:08:06;;;;;;;;;;;;;;;;;;1027487;28;19942;-78
2022/12/18 02:08:37;;;;;;;;;;;;;;;;;;1027956;28;19907;-79
2022/12/18 02:09:08;;;;;;;;;;;;;;;;;;1031676;28;19938;-79
2022/12/18 02:09:39;;;;;;;;;;;;;;;;;;1035472;28;19913;-77
2022/12/18 02:10:10;;;;;;;;;;;;;;;;;;1030874;28;19988;-77
2022/12/18 02:10:41;;;;;;;;;;;;;;;;;;1031000;28;19909;-78
2022/12/18 02:11:11;;;;;;;;;;;;;;;;;;1031582;28;19918;-77
2022/12/18 02:11:42;;;;;;;;;;;;;;;;;;1034857;28;19909;-78
2022/12/18 02:12:13;;;;;;;;;;;;;;;;;;1031305;28;20472;-78
2022/12/18 02:12:44;;;;;;;;;;;;;;;;;;1027093;28;19911;-78
2022/12/18 02:13:15;;;;;;;;;;;;;;;;;;1029838;28;19910;-78
2022/12/18 02:13:46;;;;;;;;;;;;;;;;;;1027427;28;20341;-77
2022/12/18 02:14:17;;;;;;;;;;;;;;;;;;1027102;28;19911;-78
2022/12/18 02:14:48;;;;;;;;;;;;;;;;;;1032880;28;20416;-78
2022/12/18 02:15:19;;;;;;;;;;;;;;;;;;1030930;28;20468;-78
2022/12/18 02:15:50;;;;;;;;;;;;;;;;;;1031159;28;19914;-77
2022/12/18 02:16:21;;;;;;;;;;;;;;;;;;1035585;28;19909;-77
2022/12/18 02:16:52;;;;;;;;;;;;;;;;;;1031324;28;19909;-78
2022/12/18 02:17:23;;;;;;;;;;;;;;;;;;1035187;28;19910;-77
2022/12/18 02:17:53;;;;;;;;;;;;;;;;;;1030837;28;20269;-79
2022/12/18 02:18:24;;;;;;;;;;;;;;;;;;1030391;28;20448;-78
2022/12/18 02:18:55;;;;;;;;;;;;;;;;;;1035643;28;19909;-78
2022/12/18 02:19:26;;;;;;;;;;;;;;;;;;1035214;28;19949;-78
2022/12/18 02:19:57;;;;;;;;;;;;;;;;;;1035319;28;20467;-77
2022/12/18 02:20:28;;;;;;;;;;;;;;;;;;1031117;28;19910;-80
2022/12/18 02:20:59;;;;;;;;;;;;;;;;;;1035018;28;20008;-76
2022/12/18 02:21:30;;;;;;;;;;;;;;;;;;1035346;28;19909;-78
2022/12/18 02:22:01;;;;;;;;;;;;;;;;;;1035211;28;20431;-78
2022/12/18 02:22:32;;;;;;;;;;;;;;;;;;1031075;28;19914;-78
2022/12/18 02:23:02;;;;;;;;;;;;;;;;;;1031235;28;19937;-78
2022/12/18 02:23:33;;;;;;;;;;;;;;;;;;1031348;28;19910;-78
2022/12/18 02:24:04;;;;;;;;;;;;;;;;;;1035727;28;19909;-78
2022/12/18 02:24:35;;;;;;;;;;;;;;;;;;1034888;28;19948;-79
2022/12/18 02:25:06;;;;;;;;;;;;;;;;;;1035399;28;20146;-78
2022/12/18 02:25:37;;;;;;;;;;;;;;;;;;1031143;28;20000;-79
2022/12/18 02:26:08;;;;;;;;;;;;;;;;;;1031736;28;20293;-77
2022/12/18 02:26:39;;;;;;;;;;;;;;;;;;1035512;28;20289;-79
2022/12/18 02:27:10;;;;;;;;;;;;;;;;;;1031794;28;20543;-78
2022/12/18 02:27:41;;;;;;;;;;;;;;;;;;1035659;28;19913;-78
2022/12/18 02:28:12;;;;;;;;;;;;;;;;;;1034691;28;20364;-77
2022/12/18 02:28:43;;;;;;;;;;;;;;;;;;1031425;28;20002;-78
2022/12/18 02:29:14;;;;;;;;;;;;;;;;;;1032125;28;19968;-79
2022/12/18 02:29:44;;;;;;;;;;;;;;;;;;1031132;28;19909;-78
2022/12/18 02:30:15;;;;;;;;;;;;;;;;;;1031605;28;19909;-77
2022/12/18 02:30:46;;;;;;;;;;;;;;;;;;1030922;28;20455;-78
2022/12/18 02:31:17;;;;;;;;;;;;;;;;;;1039423;28;19921;-78
2022/12/18 02:31:49;;;;;;;;;;;;;;;;;;1035569;28;19914;-79
2022/12/18 02:32:20;;;;;;;;;;;;;;;;;;1035471;28;19948;-79
2022/12/18 02:32:51;;;;;;;;;;;;;;;;;;1031304;28;19965;-78
2022/12/18 02:33:22;;;;;;;;;;;;;;;;;;1031892;28;20052;-78
2022/12/18 02:33:53;;;;;;;;;;;;;;;;;;1035080;28;19913;-79
2022/12/18 02:34:24;;;;;;;;;;;;;;;;;;1031452;28;19946;-78
2022/12/18 02:34:55;;;;;;;;;;;;;;;;;;1031505;28;19997;-77
2022/12/18 02:35:26;;;;;;;;;;;;;;;;;;1031237;28;20462;-78
2022/12/18 02:35:57;;;;;;;;;;;;;;;;;;1031249;28;19909;-77
2022/12/18 02:36:27;;;;;;;;;;;;;;;;;;1031009;28;20179;-78
2022/12/18 02:36:58;;;;;;;;;;;;;;;;;;1032426;28;19914;-77
2022/12/18 02:37:29;;;;;;;;;;;;;;;;;;1035618;28;19921;-79
2022/12/18 02:38:00;;;;;;;;;;;;;;;;;;1035453;28;20004;-79
2022/12/18 02:38:31;;;;;;;;;;;;;;;;;;1035247;28;20452;-80
2022/12/18 02:39:02;;;;;;;;;;;;;;;;;;1033178;28;20443;-79
2022/12/18 02:39:33;;;;;;;;;;;;;;;;;;1030762;28;19982;-77
2022/12/18 02:40:03;;;;;;;;;;;;;;;;;;1032177;28;19910;-79
2022/12/18 02:40:34;;;;;;;;;;;;;;;;;;1035807;28;19910;-79
2022/12/18 02:41:05;;;;;;;;;;;;;;;;;;1037882;28;20008;-78
2022/12/18 02:41:36;;;;;;;;;;;;;;;;;;1030871;28;19957;-80
2022/12/18 02:42:07;;;;;;;;;;;;;;;;;;1027431;28;20001;-78
2022/12/18 02:42:38;;;;;;;;;;;;;;;;;;1027791;28;19906;-79
2022/12/18 02:43:09;;;;;;;;;;;;;;;;;;1027522;28;19917;-77
2022/12/18 02:43:40;;;;;;;;;;;;;;;;;;1027561;28;19914;-78
2022/12/18 02:44:11;;;;;;;;;;;;;;;;;;1031188;28;19941;-77
2022/12/18 02:44:43;;;;;;;;;;;;;;;;;;1030710;28;20040;-78
2022/12/18 02:45:14;;;;;;;;;;;;;;;;;;1032285;28;19953;-78
2022/12/18 02:45:44;;;;;;;;;;;;;;;;;;1030928;28;20139;-78
2022/12/18 02:46:15;;;;;;;;;;;;;;;;;;1027575;28;20338;-78
2022/12/18 02:46:46;;;;;;;;;;;;;;;;;;1026923;28;19923;-77
2022/12/18 02:47:17;;;;;;;;;;;;;;;;;;1030633;28;20460;-77
2022/12/18 02:47:48;;;;;;;;;;;;;;;;;;1031362;28;19917;-78
2022/12/18 02:48:19;;;;;;;;;;;;;;;;;;1035375;28;20316;-78
2022/12/18 02:48:50;;;;;;;;;;;;;;;;;;1031443;28;19941;-77
2022/12/18 02:49:20;;;;;;;;;;;;;;;;;;1035791;28;20343;-78
2022/12/18 02:49:51;;;;;;;;;;;;;;;;;;1039524;28;19936;-78
2022/12/18 02:50:22;;;;;;;;;;;;;;;;;;1035822;28;19956;-78
2022/12/18 02:50:53;;;;;;;;;;;;;;;;;;1034944;28;19906;-78
2022/12/18 02:51:24;;;;;;;;;;;;;;;;;;1031830;28;19933;-77
2022/12/18 02:51:55;;;;;;;;;;;;;;;;;;1031013;28;19967;-80
2022/12/18 02:52:26;;;;;;;;;;;;;;;;;;1038976;28;19906;-78
2022/12/18 02:52:57;;;;;;;;;;;;;;;;;;1039712;28;19980;-78
2022/12/18 02:53:27;;;;;;;;;;;;;;;;;;1035298;28;20087;-80
2022/12/18 02:53:58;;;;;;;;;;;;;;;;;;1030784;28;19905;-77
2022/12/18 02:54:29;;;;;;;;;;;;;;;;;;1027104;28;19913;-78
2022/12/18 02:55:00;;;;;;;;;;;;;;;;;;1031127;28;19992;-78
2022/12/18 02:55:31;;;;;;;;;;;;;;;;;;1032357;28;19963;-78
2022/12/18 02:56:02;;;;;;;;;;;;;;;;;;1035198;28;19948;-78
2022/12/18 02:56:33;;;;;;;;;;;;;;;;;;1035785;28;19910;-78
2022/12/18 02:57:04;;;;;;;;;;;;;;;;;;1035253;28;19913;-78
2022/12/18 02:57:35;;;;;;;;;;;;;;;;;;1030893;28;19916;-78
2022/12/18 02:58:06;;;;;;;;;;;;;;;;;;1031807;28;20013;-78
2022/12/18 02:58:37;;;;;;;;;;;;;;;;;;1031591;28;19909;-77
2022/12/18 02:59:08;;;;;;;;;;;;;;;;;;1031501;28;19910;-79
2022/12/18 02:59:39;;;;;;;;;;;;;;;;;;1030850;28;20006;-79
2022/12/18 03:00:09;;;;;;;;;;;;;;;;;;1031305;28;20004;-78
2022/12/18 03:00:40;;;;;;;;;;;;;;;;;;1031524;28;19909;-79
2022/12/18 03:01:11;;;;;;;;;;;;;;;;;;1031378;28;19906;-78
2022/12/18 03:01:42;;;;;;;;;;;;;;;;;;1031073;28;19946;-78
2022/12/18 03:02:13;;;;;;;;;;;;;;;;;;1023148;28;19939;-78
2022/12/18 03:02:44;;;;;;;;;;;;;;;;;;1027435;28;19933;-78
2022/12/18 03:03:15;;;;;;;;;;;;;;;;;;1031790;28;19909;-77
2022/12/18 03:03:46;;;;;;;;;;;;;;;;;;1030890;28;20385;-77
2022/12/18 03:04:17;;;;;;;;;;;;;;;;;;1031736;28;19910;-78
2022/12/18 03:04:48;;;;;;;;;;;;;;;;;;1030858;28;20512;-78
2022/12/18 03:05:19;;;;;;;;;;;;;;;;;;1031610;28;19909;-78
2022/12/18 03:05:49;;;;;;;;;;;;;;;;;;1033673;28;19918;-78
2022/12/18 03:06:20;;;;;;;;;;;;;;;;;;1035078;28;19909;-79
2022/12/18 03:06:51;;;;;;;;;;;;;;;;;;1035285;28;19957;-77
2022/12/18 03:07:22;;;;;;;;;;;;;;;;;;1031644;28;19914;-79
2022/12/18 03:07:53;;;;;;;;;;;;;;;;;;1030831;28;20271;-78
2022/12/18 03:08:24;;;;;;;;;;;;;;;;;;1032419;28;19910;-78
2022/12/18 03:08:55;;;;;;;;;;;;;;;;;;1031193;28;19914;-79
2022/12/18 03:09:26;;;;;;;;;;;;;;;;;;1035482;28;20456;-78
2022/12/18 03:09:56;;;;;;;;;;;;;;;;;;1031242;28;19914;-78
2022/12/18 03:10:27;;;;;;;;;;;;;;;;;;1027531;28;20012;-77
2022/12/18 03:10:58;;;;;;;;;;;;;;;;;;1027350;28;19952;-78
2022/12/18 03:12:25;;;;;;;;;;;;;;;;;;1030546;28;20007;-78
2022/12/18 03:12:56;;;;;;;;;;;;;;;;;;1034423;28;19952;-78
2022/12/18 03:13:27;;;;;;;;;;;;;;;;;;1031701;28;19910;-78
2022/12/18 03:13:57;;;;;;;;;;;;;;;;;;1031176;28;20409;-80
2022/12/18 03:14:28;;;;;;;;;;;;;;;;;;1029480;28;19949;-77
2022/12/18 03:14:59;;;;;;;;;;;;;;;;;;1031492;28;20285;-80
2022/12/18 03:15:30;;;;;;;;;;;;;;;;;;1035258;28;19913;-77
2022/12/18 03:16:01;;;;;;;;;;;;;;;;;;1031329;28;19916;-78
2022/12/18 03:16:32;;;;;;;;;;;;;;;;;;1031363;28;19945;-78
2022/12/18 03:17:03;;;;;;;;;;;;;;;;;;1027587;28;20538;-78
2022/12/18 03:17:35;;;;;;;;;;;;;;;;;;1027511;28;19915;-78
2022/12/18 03:18:05;;;;;;;;;;;;;;;;;;1031517;28;20007;-78
2022/12/18 03:18:36;;;;;;;;;;;;;;;;;;1025030;28;20336;-76
2022/12/18 03:19:07;;;;;;;;;;;;;;;;;;1023670;28;20317;-78
2022/12/18 03:19:39;;;;;;;;;;;;;;;;;;1023484;29;19915;-77
2022/12/18 03:20:09;;;;;;;;;;;;;;;;;;1023904;28;19915;-77
2022/12/18 03:20:40;;;;;;;;;;;;;;;;;;1031019;28;19914;-77
2022/12/18 03:21:11;;;;;;;;;;;;;;;;;;1031859;28;19914;-78
2022/12/18 03:21:45;;;;;;;;;;;;;;;;;;1031079;28;19967;-81
2022/12/18 03:22:16;;;;;;;;;;;;;;;;;;1031916;28;20289;-78
2022/12/18 03:22:47;;;;;;;;;;;;;;;;;;1036127;28;19913;-78
2022/12/18 03:23:18;;;;;;;;;;;;;;;;;;1034689;28;19913;-77
2022/12/18 03:23:49;;;;;;;;;;;;;;;;;;1035425;28;19914;-78
2022/12/18 03:24:19;;;;;;;;;;;;;;;;;;1035396;28;19914;-76
2022/12/18 03:24:50;;;;;;;;;;;;;;;;;;1034435;28;19940;-76
2022/12/18 03:25:21;;;;;;;;;;;;;;;;;;1031698;28;19917;-79
2022/12/18 03:25:52;;;;;;;;;;;;;;;;;;1030851;28;20000;-79
2022/12/18 03:26:23;;;;;;;;;;;;;;;;;;1031576;28;19917;-77
2022/12/18 03:26:54;;;;;;;;;;;;;;;;;;1030920;28;20405;-77
2022/12/18 03:27:25;;;;;;;;;;;;;;;;;;1031517;28;19937;-79
2022/12/18 03:27:56;;;;;;;;;;;;;;;;;;1031282;28;19933;-79
2022/12/18 03:28:27;;;;;;;;;;;;;;;;;;1031287;28;20455;-78
2022/12/18 03:28:58;;;;;;;;;;;;;;;;;;1031346;28;20423;-78
2022/12/18 03:29:29;;;;;;;;;;;;;;;;;;1031745;28;20482;-78
2022/12/18 03:30:06;;;;;;;;;;;;;;;;;;1038878;28;19917;-78
2022/12/18 03:30:37;;;;;;;;;;;;;;;;;;1035713;28;19909;-78
2022/12/18 03:31:08;;;;;;;;;;;;;;;;;;1035150;28;19909;-78
2022/12/18 03:31:39;;;;;;;;;;;;;;;;;;1036159;28;20024;-76
2022/12/18 03:32:10;;;;;;;;;;;;;;;;;;1035111;28;19941;-78
2022/12/18 03:32:41;;;;;;;;;;;;;;;;;;1035404;28;19916;-78
2022/12/18 03:33:12;;;;;;;;;;;;;;;;;;1034148;28;19949;-77
2022/12/18 03:33:43;;;;;;;;;;;;;;;;;;1027581;28;20100;-77
2022/12/18 03:34:13;;;;;;;;;;;;;;;;;;1032253;28;19961;-79